Grants-Milan, NM

4:29 AM MDT on June 26, 2017 (GMT -0600)
Grants-Milan Municipal

Weather History for KGNT - December, 2013

Change the Weather History Date:

Saturday, December 14, 2013

  Actual Average Record
Temperature  
Mean Temperature 27 °F -  
Max Temperature 40 °F 45 °F 64 °F (2010)
Min Temperature 14 °F 14 °F -6 °F (1985)
Degree Days  
Heating Degree Days 38    
Moisture  
Dew Point 14 °F    
Average Humidity 64    
Maximum Humidity 88    
Minimum Humidity 33    
Precipitation  
Precipitation 0.00 in - - ()
Sea Level Pressure  
Sea Level Pressure 30.34 in    
Wind  
Wind Speed 8 mph (NNW)    
Max Wind Speed 16 mph    
Max Gust Speed 22 mph    
Averages and records for this station are not official NWS values.
T = Trace of Precipitation, MM = Missing Value Source: NWS Daily Summary

Daily Weather History Graph

Daily Weather History Graph

Search for Another Location

Airport or City:

Trip Planner

Search our weather history database for the weather conditions in past years. The results will help you decide how hot, cold, wet, or windy it might be!

Date:

Astronomy

Dec. 14, 2013 Rise Set
Actual Time 7:12 AM MST 5:00 PM MST
Civil Twilight 6:44 AM MST 5:28 PM MST
Nautical Twilight 6:12 AM MST 6:00 PM MST
Astronomical Twilight 5:41 AM MST 6:31 PM MST
Moon 3:21 PM MST (12/14) 4:39 AM MST (12/14)
Length of Visible Light 10h 44m
Length of Day
9h 48m
Waxing Gibbous, 94% of the Moon is Illuminated
Dec 14
Waxing Gibbous
Dec 17
Full
Dec 25
Last Quarter
Jan 1
New
Jan 7
First Quarter

Hourly Weather History & Observations

Time (MST) Temp. Windchill Dew Point Humidity Pressure Visibility Wind Dir Wind Speed Gust Speed Precip Events Conditions
12:15 AM 27.9 °F 19.8 °F 23.0 °F 82% 30.16 in - NW 8.1 mph - N/A   Scattered Clouds
12:35 AM 25.9 °F 17.4 °F 22.1 °F 86% 30.16 in - NNW 8.1 mph - N/A   Unknown
12:55 AM 24.6 °F 15.8 °F 20.7 °F 85% 30.16 in - NW 8.1 mph - N/A   Unknown
1:15 AM 23.2 °F 14.1 °F 19.9 °F 87% 30.16 in - NW 8.1 mph - N/A   Unknown
1:35 AM 26.1 °F 16.2 °F 19.9 °F 78% 30.17 in - NW 10.4 mph - N/A   Clear
1:55 AM 23.2 °F 14.1 °F 18.3 °F 82% 30.18 in - North 8.1 mph - N/A   Clear
2:15 AM 21.0 °F 11.4 °F 17.6 °F 87% 30.18 in - North 8.1 mph - N/A   Unknown
2:35 AM 22.1 °F 12.8 °F 17.6 °F 83% 30.18 in - NW 8.1 mph - N/A   Unknown
2:55 AM 23.0 °F 13.1 °F 18.0 °F 81% 30.20 in - NW 9.2 mph - N/A   Clear
3:15 AM 21.7 °F 12.3 °F 17.2 °F 83% 30.20 in - NW 8.1 mph - N/A   Clear
3:35 AM 22.3 °F 13.9 °F 16.9 °F 80% 30.21 in - NW 6.9 mph - N/A   Clear
3:55 AM 23.4 °F 15.2 °F 16.7 °F 76% 30.23 in - WNW 6.9 mph - N/A   Clear
4:15 AM 21.9 °F 15.7 °F 15.4 °F 76% 30.22 in - NNW 4.6 mph - N/A   Clear
4:35 AM 17.8 °F 7.5 °F 14.0 °F 85% 30.22 in - NNW 8.1 mph - N/A   Unknown
4:55 AM 16.5 °F 6.9 °F 13.6 °F 88% 30.23 in - NW 6.9 mph - N/A   Unknown
5:15 AM 18.5 °F 6.8 °F 15.3 °F 87% 30.24 in - NW 10.4 mph - N/A   Unknown
5:35 AM 19.0 °F 9.0 °F 14.4 °F 82% 30.24 in - NW 8.1 mph - N/A   Clear
5:55 AM 19.9 °F 8.6 °F 14.2 °F 78% 30.26 in - NW 10.4 mph - N/A   Clear
6:15 AM 19.4 °F 9.5 °F 14.2 °F 80% 30.27 in - NW 8.1 mph - N/A   Clear
6:35 AM 19.9 °F 11.1 °F 14.0 °F 78% 30.28 in - NW 6.9 mph - N/A   Clear
6:55 AM 19.0 °F 10.0 °F 13.8 °F 80% 30.30 in - NNW 6.9 mph - N/A   Clear
7:15 AM 19.2 °F 8.4 °F 13.8 °F 80% 30.30 in - NNW 9.2 mph - N/A   Clear
7:35 AM 19.4 °F 8.6 °F 13.8 °F 79% 30.32 in - NW 9.2 mph - N/A   Clear
7:55 AM 21.2 °F 10.9 °F 14.9 °F 77% 30.33 in - NNW 9.2 mph - N/A   Clear
8:15 AM 23.9 °F 15.0 °F 16.3 °F 73% 30.34 in - NNW 8.1 mph - N/A   Clear
8:35 AM 27.0 °F 16.1 °F 17.4 °F 67% 30.36 in - NNW 12.7 mph - N/A   Clear
8:55 AM 29.3 °F 19.1 °F 16.9 °F 60% 30.37 in - NNW 12.7 mph - N/A   Clear
9:15 AM 30.7 °F 20.9 °F 16.0 °F 54% 30.37 in - North 12.7 mph 19.6 mph N/A   Clear
9:35 AM 31.6 °F 22.1 °F 15.8 °F 52% 30.38 in - North 12.7 mph 17.3 mph N/A   Clear
9:55 AM 32.0 °F 23.0 °F 16.0 °F 52% 30.39 in - North 11.5 mph - N/A   Clear
10:15 AM 33.1 °F 26.9 °F 16.2 °F 50% 30.40 in - North 6.9 mph - N/A   Clear
10:35 AM 33.4 °F 27.3 °F 15.8 °F 48% 30.40 in - NNW 6.9 mph - N/A   Clear
10:55 AM 33.8 °F 30.8 °F 15.6 °F 47% 30.40 in - North 3.5 mph - N/A   Clear
11:15 AM 35.4 °F 29.0 °F 16.0 °F 45% 30.39 in - North 8.1 mph - N/A   Clear
11:35 AM 36.1 °F 28.2 °F 15.4 °F 43% 30.39 in - North 11.5 mph - N/A   Clear
11:55 AM 37.8 °F 31.8 °F 14.9 °F 39% 30.38 in - NNW 8.1 mph - N/A   Clear
12:15 PM 38.5 °F 32.7 °F 14.2 °F 37% 30.37 in - NNW 8.1 mph - N/A   Clear
12:35 PM 38.3 °F 31.9 °F 13.3 °F 36% 30.37 in - NW 9.2 mph - N/A   Clear
12:55 PM 39.2 °F 34.2 °F 13.1 °F 34% 30.35 in - North 6.9 mph - N/A   Clear
1:15 PM 39.2 °F 35.0 °F 13.1 °F 34% 30.35 in - North 5.8 mph - N/A   Clear
1:35 PM 39.7 °F 34.9 °F 13.6 °F 35% 30.35 in - North 6.9 mph - N/A   Clear
1:55 PM 40.6 °F 34.8 °F 13.1 °F 33% 30.35 in - NNE 9.2 mph - N/A   Clear
2:15 PM 40.3 °F 33.9 °F 12.9 °F 33% 30.36 in - North 10.4 mph - N/A   Clear
2:35 PM 40.6 °F 33.8 °F 13.1 °F 33% 30.36 in - NNW 11.5 mph 18.4 mph N/A   Clear
2:55 PM 40.1 °F 32.4 °F 13.1 °F 33% 30.35 in - NNW 13.8 mph 19.6 mph N/A   Clear
3:15 PM 39.4 °F 31.4 °F 12.9 °F 34% 30.36 in - NNW 13.8 mph 20.7 mph N/A   Clear
3:35 PM 39.2 °F 30.5 °F 12.2 °F 33% 30.37 in - NNW 16.1 mph 21.9 mph N/A   Clear
3:55 PM 37.8 °F 28.6 °F 12.0 °F 35% 30.38 in - North 16.1 mph - N/A   Clear
4:15 PM 36.9 °F 28.2 °F 12.0 °F 36% 30.38 in - North 13.8 mph - N/A   Clear
4:35 PM 35.2 °F 25.8 °F 12.2 °F 39% 30.38 in - North 15.0 mph - N/A   Clear
4:55 PM 33.1 °F 23.4 °F 12.2 °F 42% 30.38 in - NNW 13.8 mph - N/A   Clear
5:15 PM 30.4 °F 22.9 °F 11.5 °F 45% 30.38 in - NNW 8.1 mph - N/A   Clear
5:35 PM 26.8 °F 16.5 °F 12.2 °F 54% 30.38 in - NW 11.5 mph - N/A   Clear
5:55 PM 26.8 °F 17.1 °F 12.4 °F 55% 30.38 in - NW 10.4 mph - N/A   Clear
6:15 PM 25.9 °F 16.0 °F 12.2 °F 56% 30.40 in - NW 10.4 mph - N/A   Clear
6:35 PM 24.8 °F 14.0 °F 12.7 °F 60% 30.40 in - NW 11.5 mph - N/A   Clear
6:55 PM 23.4 °F 12.8 °F 12.9 °F 64% 30.41 in - NW 10.4 mph - N/A   Clear
7:15 PM 22.5 °F 13.2 °F 12.2 °F 65% 30.41 in - NNW 8.1 mph - N/A   Clear
7:35 PM 19.6 °F 10.6 °F 11.5 °F 71% 30.41 in - NW 6.9 mph - N/A   Clear
7:55 PM 19.4 °F 9.5 °F 11.7 °F 72% 30.43 in - NW 8.1 mph - N/A   Clear
8:15 PM 17.4 °F 10.4 °F 11.1 °F 76% 30.44 in - NW 4.6 mph - N/A   Clear
8:35 PM 20.3 °F 15.4 °F 11.8 °F 70% 30.44 in - NW 3.5 mph - N/A   Clear
8:55 PM 17.1 °F 8.7 °F 10.9 °F 77% 30.44 in - NNW 5.8 mph - N/A   Clear
9:15 PM 17.4 °F 12.1 °F 12.0 °F 79% 30.44 in - NW 3.5 mph - N/A   Clear
9:35 PM 18.5 °F 13.3 °F 12.2 °F 76% 30.44 in - NW 3.5 mph - N/A   Clear
9:55 PM 16.9 °F 9.8 °F 11.8 °F 81% 30.44 in - NW 4.6 mph - N/A   Clear
10:15 PM 14.9 °F - 10.8 °F 84% 30.44 in - Calm Calm - N/A   Unknown
10:35 PM 16.7 °F - 12.0 °F 82% 30.44 in - Calm Calm - N/A   Clear
10:55 PM 18.0 °F - 12.7 °F 80% 30.44 in - Calm Calm - N/A   Clear
11:15 PM 14.5 °F - 11.3 °F 87% 30.46 in - Calm Calm - N/A   Unknown
11:35 PM 14.9 °F - 11.1 °F 85% 30.45 in - Calm Calm - N/A   Unknown
11:55 PM 17.1 °F - 12.4 °F 82% 30.44 in - Calm Calm - N/A   Clear